Rechercher aéroport 
image banner adimage banner adimage banner ad
image banner ad

CL28 - Moronga Basin Chp

Situé à Joshua Tree, United States

ICAO - CL28, IATA -

Données fournies par Airmate  

Information générale

Coordonnées: N34°8'3" W116°16'26"
Élévation : 2485 feet MSL.
Variation magnétique : 14° East
Voir autres Aéroports à California

Données opérationnelles

Special qualification required
Heure actuelle UTC:
Heure actuelle locale:
Météo à : KNXP - Twentynine Palms Self ( 21 km )
METAR: KNXP 210156Z AUTO 14005KT 10SM CLR 31/M02 A3005 RMK AO2 SLP141 T03061022
TAF: TAF KNXP 2021/2121 08008KT 9999 SKC QNH3004INS BECMG 2100/2102 VRB06KT 9999 SKC QNH3009INS T34/2023Z T19/2114Z
Voir NOTAMs / SUP AIP / TFR affectant cet aéroport [VIEW]
Fréquences de communication: [VIEW]

Pistes:

Coordonnées de l'aéroport

Adresse: Joshua Tree United States

Vue satellite de CL28